Time;durP1;ratioP1;P1;durP2;ratioP2;P2;SDS_P1;SDS_P2;PMS_P1;PMS_P2;Temp;Humidity;BMP_temperature;BMP_pressure;BME280_temperature;BME280_humidity;BME280_pressure;Samples;Min_cycle;Max_cycle;Signal;HPM_P1;HPM_P2
2022/01/24 00:01:34;;;;;;;6.85;2.70;;;6.30;99.90;;;;;;4969933;28;20031;-71
2022/01/24 00:04:02;;;;;;;7.35;2.78;;;6.40;99.90;;;;;;4987135;28;20025;-72
2022/01/24 00:06:28;;;;;;;7.28;3.33;;;6.40;99.90;;;;;;4986911;28;20470;-71
2022/01/24 00:08:54;;;;;;;6.50;3.35;;;6.30;99.90;;;;;;4988556;28;20019;-72
2022/01/24 00:11:27;;;;;;;9.02;3.78;;;6.40;99.90;;;;;;4987083;28;20082;-74
2022/01/24 00:26:57;;;;;;;7.57;3.15;;;6.30;99.90;;;;;;4986591;28;20034;-72
2022/01/24 00:29:30;;;;;;;8.77;3.72;;;6.30;99.90;;;;;;4986779;28;20031;-73
2022/01/24 00:31:56;;;;;;;5.43;2.45;;;6.30;99.90;;;;;;4986180;28;20038;-71
2022/01/24 00:34:23;;;;;;;7.10;3.85;;;6.40;99.90;;;;;;4986187;28;20031;-71
2022/01/24 00:36:49;;;;;;;7.43;3.42;;;6.30;99.90;;;;;;4986475;28;20052;-71
2022/01/24 00:39:15;;;;;;;8.82;3.83;;;6.30;99.90;;;;;;4986225;28;20554;-71
2022/01/24 00:47:05;;;;;;;;;;;6.30;99.90;;;;;;4986554;28;20042;-71
2022/01/24 00:55:04;;;;;;;8.20;3.80;;;6.40;99.90;;;;;;4985978;28;20038;-71
2022/01/24 00:57:29;;;;;;;9.20;3.25;;;6.30;99.90;;;;;;4985757;28;20123;-70
2022/01/24 00:59:56;;;;;;;6.13;3.65;;;6.30;99.90;;;;;;4985630;28;20031;-71
2022/01/24 01:02:22;;;;;;;11.43;4.50;;;6.30;99.90;;;;;;4968303;28;20027;-71
2022/01/24 01:07:22;;;;;;;9.20;3.88;;;6.30;99.90;;;;;;4985675;28;20547;-70
2022/01/24 01:18:14;;;;;;;12.68;4.10;;;6.20;99.90;;;;;;4986048;28;20041;-73
2022/01/24 01:23:16;;;;;;;12.13;5.53;;;6.30;99.90;;;;;;4984536;28;20122;-72
2022/01/24 01:25:43;;;;;;;8.73;3.90;;;6.30;99.90;;;;;;4968003;28;20571;-72
2022/01/24 01:28:09;;;;;;;11.63;3.85;;;6.40;99.90;;;;;;4985269;28;20023;-70
2022/01/24 01:30:41;;;;;;;8.82;4.35;;;6.20;99.90;;;;;;4985512;28;20098;-71
2022/01/24 01:33:21;;;;;;;10.65;4.32;;;6.20;99.90;;;;;;4968160;28;20069;-71
2022/01/24 01:57:14;;;;;;;8.27;3.88;;;6.00;99.90;;;;;;4985240;28;20045;-73
2022/01/24 01:59:40;;;;;;;7.22;3.67;;;6.00;99.90;;;;;;4984105;28;20023;-72
2022/01/24 02:02:05;;;;;;;6.63;3.17;;;6.00;99.90;;;;;;4985089;28;20030;-72
2022/01/24 02:04:31;;;;;;;7.32;3.70;;;6.00;99.90;;;;;;4984793;28;20027;-71
2022/01/24 02:06:57;;;;;;;10.52;4.57;;;6.00;99.90;;;;;;4985288;28;20034;-71
2022/01/24 02:09:29;;;;;;;8.02;3.90;;;6.00;99.90;;;;;;4985362;28;20035;-72
2022/01/24 02:11:56;;;;;;;13.80;4.10;;;6.00;99.90;;;;;;4984584;28;20384;-72
2022/01/24 02:14:28;;;;;;;8.15;3.72;;;6.00;99.90;;;;;;4985605;28;20026;-72
2022/01/24 02:17:01;;;;;;;9.88;3.53;;;6.00;99.90;;;;;;4985090;28;20082;-72
2022/01/24 02:19:47;;;;;;;9.77;4.28;;;6.00;99.90;;;;;;4985458;28;20035;-72
2022/01/24 02:24:58;;;;;;;8.10;4.25;;;6.10;99.90;;;;;;4984787;28;20038;-71
2022/01/24 02:27:26;;;;;;;8.23;3.30;;;6.10;99.90;;;;;;4967847;28;20026;-71
2022/01/24 02:30:25;;;;;;;7.28;3.72;;;6.00;99.90;;;;;;4968012;28;20426;-71
2022/01/24 02:32:42;;;;;;;12.70;3.88;;;6.00;99.90;;;;;;4983068;28;20038;-71
2022/01/24 02:35:09;;;;;;;8.35;3.70;;;6.00;99.90;;;;;;4987395;28;20027;-71
2022/01/24 02:37:35;;;;;;;10.48;4.22;;;5.90;99.90;;;;;;4988225;28;20054;-71
2022/01/24 02:40:34;;;;;;;13.05;4.15;;;5.90;99.90;;;;;;4970773;28;20054;-72
2022/01/24 02:48:27;;;;;;;8.82;3.47;;;5.90;99.90;;;;;;4988726;28;19913;-72
2022/01/24 02:51:22;;;;;;;12.95;4.93;;;5.90;99.90;;;;;;4987804;28;20031;-72
2022/01/24 02:53:48;;;;;;;12.05;4.28;;;5.90;99.90;;;;;;4988329;28;20039;-73
2022/01/24 02:56:13;;;;;;;8.20;4.25;;;5.90;99.90;;;;;;4988432;28;20110;-72
2022/01/24 02:58:39;;;;;;;10.05;4.05;;;6.10;99.90;;;;;;4987776;28;20043;-74
2022/01/24 03:01:07;;;;;;;9.73;3.83;;;6.00;99.90;;;;;;4988331;28;20037;-72
2022/01/24 03:03:37;;;;;;;11.75;4.50;;;6.00;99.90;;;;;;4988087;28;20103;-73
2022/01/24 03:06:04;;;;;;;9.68;3.85;;;5.90;99.90;;;;;;4979859;28;20073;-73
2022/01/24 03:08:30;;;;;;;6.47;3.28;;;5.90;99.90;;;;;;4987952;28;20027;-71
2022/01/24 03:10:57;;;;;;;6.88;2.85;;;5.90;99.90;;;;;;4988400;28;20502;-70
2022/01/24 03:15:56;;;;;;;11.38;4.60;;;5.90;99.90;;;;;;4988246;28;20077;-73
2022/01/24 03:18:22;;;;;;;13.55;4.40;;;5.90;99.90;;;;;;4987666;28;20042;-72
2022/01/24 03:20:48;;;;;;;14.02;5.30;;;5.90;99.90;;;;;;4987895;28;20035;-72
2022/01/24 03:23:16;;;;;;;10.70;3.80;;;5.90;99.90;;;;;;4987739;28;20106;-72
2022/01/24 03:25:43;;;;;;;11.73;5.00;;;5.90;99.90;;;;;;4987210;28;20035;-72
2022/01/24 03:28:09;;;;;;;12.52;4.15;;;5.90;99.90;;;;;;4987581;28;20054;-73
2022/01/24 03:30:36;;;;;;;9.27;4.50;;;5.90;99.90;;;;;;4969743;28;20027;-71
2022/01/24 03:33:03;;;;;;;14.50;3.63;;;5.90;99.90;;;;;;4986828;28;20018;-72
2022/01/24 03:35:30;;;;;;;8.40;3.78;;;5.90;99.90;;;;;;4987457;28;20027;-74
2022/01/24 03:37:55;;;;;;;11.35;4.00;;;5.90;99.90;;;;;;4987108;28;20039;-72
2022/01/24 03:40:22;;;;;;;13.23;4.43;;;5.90;99.90;;;;;;4969222;28;20066;-73
2022/01/24 03:42:48;;;;;;;15.50;5.50;;;6.00;99.90;;;;;;4970272;28;20038;-73
2022/01/24 03:45:15;;;;;;;13.65;5.22;;;5.90;99.90;;;;;;4986910;28;20031;-72
2022/01/24 03:47:54;;;;;;;10.65;4.28;;;5.90;99.90;;;;;;4986260;28;20102;-72
2022/01/24 03:50:20;;;;;;;10.30;4.97;;;5.90;99.90;;;;;;4987463;28;20030;-70
2022/01/24 03:52:47;;;;;;;14.32;4.68;;;5.90;99.90;;;;;;4970418;28;20059;-73
2022/01/24 03:55:12;;;;;;;10.93;4.40;;;5.90;99.90;;;;;;4967482;28;20029;-72
2022/01/24 03:57:39;;;;;;;13.35;5.10;;;5.90;99.90;;;;;;4967891;28;20063;-72
2022/01/24 04:00:07;;;;;;;10.98;4.90;;;5.80;99.90;;;;;;4967601;28;20031;-72
2022/01/24 04:02:33;;;;;;;10.18;5.25;;;5.90;99.90;;;;;;4966518;28;20061;-72
2022/01/24 04:04:59;;;;;;;9.95;4.43;;;5.90;99.90;;;;;;4968085;28;20039;-71
2022/01/24 04:07:26;;;;;;;17.52;5.75;;;5.90;99.90;;;;;;4967595;28;20626;-71
2022/01/24 04:09:52;;;;;;;13.85;5.05;;;5.90;99.90;;;;;;4967740;28;20098;-73
2022/01/24 04:12:23;;;;;;;16.73;4.68;;;5.90;99.90;;;;;;4966984;28;20395;-71
2022/01/24 04:22:16;;;;;;;12.65;5.53;;;5.80;99.90;;;;;;4967009;28;20436;-72
2022/01/24 04:24:43;;;;;;;15.43;5.32;;;5.90;99.90;;;;;;4967084;28;20027;-71
2022/01/24 04:27:09;;;;;;;16.23;5.07;;;5.90;99.90;;;;;;4949794;29;20056;-72
2022/01/24 04:29:36;;;;;;;19.48;6.05;;;5.90;99.90;;;;;;4967009;28;20027;-73
2022/01/24 04:32:03;;;;;;;15.63;5.60;;;6.00;99.90;;;;;;4967330;28;20030;-72
2022/01/24 04:34:29;;;;;;;14.27;5.20;;;5.90;99.90;;;;;;4966615;28;20028;-71
2022/01/24 04:36:54;;;;;;;12.90;4.95;;;5.90;99.90;;;;;;4966691;28;20034;-70
2022/01/24 04:39:22;;;;;;;16.15;6.35;;;5.90;99.90;;;;;;4967238;28;20460;-72
2022/01/24 04:41:51;;;;;;;16.85;5.85;;;5.90;99.90;;;;;;4966070;28;20031;-71
2022/01/24 04:47:30;;;;;;;16.55;5.95;;;5.90;99.90;;;;;;4967002;28;20042;-73
2022/01/24 04:52:46;;;;;;;;;;;5.90;99.90;;;;;;4980998;28;20065;-72
2022/01/24 04:55:12;;;;;;;15.57;6.68;;;5.90;99.90;;;;;;4968806;28;19910;-72
2022/01/24 04:57:38;;;;;;;26.27;7.18;;;6.10;99.90;;;;;;4986626;28;20064;-71
2022/01/24 05:00:07;;;;;;;23.45;7.78;;;6.00;99.90;;;;;;4987730;28;20103;-71
2022/01/24 05:02:33;;;;;;;17.40;4.90;;;5.90;99.90;;;;;;4986269;28;20387;-71
2022/01/24 05:04:59;;;;;;;11.98;5.65;;;5.90;99.90;;;;;;4985956;28;20034;-72
2022/01/24 05:07:26;;;;;;;18.13;6.80;;;5.90;99.90;;;;;;4985517;28;20030;-72
2022/01/24 05:10:11;;;;;;;19.52;5.97;;;5.90;99.90;;;;;;4985526;28;20031;-72
2022/01/24 05:23:35;;;;;;;18.23;6.63;;;6.00;99.90;;;;;;4985438;28;20076;-72
2022/01/24 05:26:03;;;;;;;16.75;6.60;;;5.90;99.90;;;;;;4985682;28;20034;-73
2022/01/24 05:28:31;;;;;;;15.20;5.82;;;6.00;99.90;;;;;;4968167;28;20053;-71
2022/01/24 05:30:58;;;;;;;12.75;5.18;;;6.00;99.90;;;;;;4985242;28;20034;-72
2022/01/24 05:33:25;;;;;;;22.02;6.30;;;6.00;99.90;;;;;;4968166;28;20118;-73
2022/01/24 05:35:51;;;;;;;20.38;5.40;;;5.90;99.90;;;;;;4985613;28;20027;-71
2022/01/24 05:38:17;;;;;;;13.93;5.78;;;5.90;99.90;;;;;;4985459;28;20557;-71
2022/01/24 05:40:44;;;;;;;17.70;5.13;;;6.00;99.90;;;;;;4985662;28;20031;-70
2022/01/24 05:43:10;;;;;;;16.15;5.50;;;5.90;99.90;;;;;;4968004;28;20126;-72
2022/01/24 05:45:36;;;;;;;12.27;4.97;;;6.00;99.90;;;;;;4985514;28;20035;-71
2022/01/24 05:48:02;;;;;;;34.63;9.15;;;6.00;99.90;;;;;;4967774;28;20030;-70
2022/01/24 05:50:28;;;;;;;24.95;8.35;;;6.00;99.90;;;;;;4967646;28;20041;-72
2022/01/24 05:52:53;;;;;;;18.08;5.68;;;6.00;99.90;;;;;;4967561;28;20054;-70
2022/01/24 05:55:19;;;;;;;15.35;5.03;;;6.00;99.90;;;;;;4968508;28;20070;-71
2022/01/24 05:57:45;;;;;;;20.48;6.53;;;5.90;99.90;;;;;;4967482;28;20034;-72
2022/01/24 06:00:13;;;;;;;14.38;5.53;;;5.90;99.90;;;;;;4984141;28;20110;-71
2022/01/24 06:02:39;;;;;;;16.27;6.13;;;6.00;99.90;;;;;;4985128;28;20042;-74
2022/01/24 06:05:06;;;;;;;14.02;5.00;;;6.00;99.90;;;;;;4984396;28;21137;-74
2022/01/24 06:07:31;;;;;;;20.30;6.03;;;6.00;99.90;;;;;;4967099;28;20067;-71
2022/01/24 06:09:59;;;;;;;17.60;4.32;;;6.00;99.90;;;;;;4987644;28;20030;-72
2022/01/24 06:12:26;;;;;;;14.57;6.40;;;6.00;99.90;;;;;;4990011;28;20363;-72
2022/01/24 06:14:52;;;;;;;14.18;5.43;;;6.00;99.90;;;;;;4969809;28;20031;-73
2022/01/24 06:17:18;;;;;;;14.85;5.80;;;6.00;99.90;;;;;;4985291;28;20054;-71
2022/01/24 06:19:44;;;;;;;16.33;5.30;;;6.00;99.90;;;;;;4971407;28;20015;-71
2022/01/24 06:22:20;;;;;;;14.82;5.80;;;6.00;99.90;;;;;;4988875;28;20086;-73
2022/01/24 06:24:46;;;;;;;16.42;6.72;;;6.00;99.90;;;;;;4988746;28;20084;-72
2022/01/24 06:27:11;;;;;;;13.30;5.38;;;6.00;99.90;;;;;;4988592;28;20896;-71
2022/01/24 06:29:37;;;;;;;13.98;5.88;;;5.90;99.90;;;;;;4988620;28;20034;-71
2022/01/24 06:32:03;;;;;;;13.48;5.90;;;6.20;99.90;;;;;;4988361;28;20035;-71
2022/01/24 06:34:29;;;;;;;17.48;6.75;;;6.00;99.90;;;;;;4971285;28;20030;-71
2022/01/24 06:36:54;;;;;;;20.80;6.43;;;6.00;99.90;;;;;;4988856;28;20554;-72
2022/01/24 06:39:20;;;;;;;15.25;6.20;;;6.00;99.90;;;;;;4988838;28;20031;-71
2022/01/24 06:41:53;;;;;;;11.93;5.65;;;6.10;99.90;;;;;;4988359;28;20042;-71
2022/01/24 06:44:18;;;;;;;12.10;5.70;;;6.00;99.90;;;;;;4988666;28;20050;-71
2022/01/24 06:46:44;;;;;;;12.73;5.85;;;6.00;99.90;;;;;;4988284;28;20030;-72
2022/01/24 06:49:10;;;;;;;15.20;7.13;;;6.10;99.90;;;;;;4988302;28;20019;-71
2022/01/24 06:51:36;;;;;;;15.10;6.57;;;6.00;99.90;;;;;;4985930;28;20070;-71
2022/01/24 06:54:02;;;;;;;14.68;5.20;;;5.90;99.90;;;;;;4970330;28;20026;-72
2022/01/24 06:56:27;;;;;;;16.05;6.18;;;6.00;99.90;;;;;;4988559;28;20027;-70
2022/01/24 06:58:53;;;;;;;19.83;6.78;;;6.00;99.90;;;;;;4988481;28;20039;-73
2022/01/24 07:01:19;;;;;;;17.58;6.38;;;6.00;99.90;;;;;;4988118;28;20479;-71
2022/01/24 07:03:44;;;;;;;14.60;5.45;;;5.90;99.90;;;;;;4970201;28;20034;-71
2022/01/24 07:06:10;;;;;;;15.32;6.53;;;5.90;99.90;;;;;;4987727;28;20027;-72
2022/01/24 07:08:35;;;;;;;15.25;6.45;;;5.90;99.90;;;;;;4987672;28;20027;-72
2022/01/24 07:11:01;;;;;;;19.60;6.28;;;5.90;99.90;;;;;;4970306;28;20391;-73
2022/01/24 07:13:26;;;;;;;14.65;6.70;;;5.90;99.90;;;;;;4988280;28;20027;-74
2022/01/24 07:15:58;;;;;;;12.02;6.13;;;5.90;99.90;;;;;;4983044;28;20067;-73
2022/01/24 07:21:00;;;;;;;20.33;7.20;;;6.00;99.90;;;;;;4992688;28;20485;-73
2022/01/24 07:23:27;;;;;;;17.40;7.13;;;6.00;99.90;;;;;;4970854;28;20035;-72
2022/01/24 07:25:53;;;;;;;19.65;7.03;;;5.90;99.90;;;;;;4955989;28;20086;-73
2022/01/24 07:28:19;;;;;;;16.90;5.93;;;6.00;99.90;;;;;;4986742;28;20031;-71
2022/01/24 07:30:45;;;;;;;12.93;5.85;;;6.00;99.90;;;;;;4987223;28;20062;-73
2022/01/24 07:33:14;;;;;;;16.67;5.82;;;6.00;99.90;;;;;;4987926;28;20029;-72
2022/01/24 07:35:39;;;;;;;19.30;6.60;;;6.00;99.90;;;;;;4987515;28;20030;-72
2022/01/24 07:38:05;;;;;;;19.70;6.40;;;6.00;99.90;;;;;;4986488;28;20042;-71
2022/01/24 07:40:37;;;;;;;12.82;5.18;;;6.10;99.90;;;;;;4984160;28;20015;-73
2022/01/24 07:43:12;;;;;;;22.23;6.75;;;6.00;99.90;;;;;;4984527;28;20035;-73
2022/01/24 07:45:49;;;;;;;18.48;6.85;;;6.00;99.90;;;;;;4986398;28;20019;-72
2022/01/24 07:48:16;;;;;;;20.10;7.03;;;5.90;99.90;;;;;;4981051;28;20859;-71
2022/01/24 07:50:46;;;;;;;16.17;6.60;;;5.90;99.90;;;;;;4986714;28;20054;-71
2022/01/24 07:53:15;;;;;;;19.42;6.68;;;5.90;99.90;;;;;;4986291;28;20043;-72
2022/01/24 07:55:41;;;;;;;18.15;5.97;;;6.10;99.90;;;;;;4985583;28;20023;-71
2022/01/24 07:58:07;;;;;;;18.45;7.03;;;5.90;99.90;;;;;;4985798;28;20125;-72
2022/01/24 08:00:33;;;;;;;16.30;5.95;;;5.90;99.90;;;;;;4985344;28;20034;-72
2022/01/24 08:03:00;;;;;;;11.80;5.72;;;6.00;99.90;;;;;;4968393;28;20027;-72
2022/01/24 08:05:28;;;;;;;14.00;6.38;;;5.90;99.90;;;;;;4986187;28;20039;-72
2022/01/24 08:07:56;;;;;;;14.18;6.05;;;6.00;99.90;;;;;;4968575;28;20050;-72
2022/01/24 08:10:22;;;;;;;16.42;5.95;;;6.00;99.90;;;;;;4986436;28;20027;-72
2022/01/24 08:12:48;;;;;;;17.45;6.65;;;6.00;99.90;;;;;;4985300;28;20026;-72
2022/01/24 08:15:14;;;;;;;14.18;6.65;;;6.00;99.90;;;;;;4985950;28;20511;-73
2022/01/24 08:17:47;;;;;;;16.75;6.25;;;6.00;99.90;;;;;;4984937;28;20107;-72
2022/01/24 08:20:14;;;;;;;16.27;6.60;;;6.00;99.90;;;;;;4982947;28;20046;-71
2022/01/24 08:22:41;;;;;;;21.83;7.47;;;6.10;99.90;;;;;;4984554;28;20388;-74
2022/01/24 08:25:07;;;;;;;14.35;6.40;;;6.00;99.90;;;;;;4983673;28;20035;-72
2022/01/24 08:27:34;;;;;;;18.95;6.90;;;6.00;99.90;;;;;;4984410;28;20030;-73
2022/01/24 08:30:06;;;;;;;14.93;5.10;;;6.00;99.90;;;;;;4985660;28;20026;-73
2022/01/24 08:32:32;;;;;;;18.65;6.50;;;6.10;99.90;;;;;;4994071;28;20057;-73
2022/01/24 08:34:58;;;;;;;22.23;6.63;;;6.00;99.90;;;;;;5004833;28;20057;-72
2022/01/24 08:37:24;;;;;;;15.90;6.00;;;6.00;99.90;;;;;;5005401;28;20098;-71
2022/01/24 08:39:50;;;;;;;14.35;5.20;;;6.00;99.90;;;;;;5005114;28;20038;-72
2022/01/24 08:42:20;;;;;;;13.95;5.22;;;6.10;99.90;;;;;;5005233;28;20027;-72
2022/01/24 08:47:35;;;;;;;20.00;6.90;;;6.00;99.90;;;;;;4985100;28;20027;-73
2022/01/24 08:50:04;;;;;;;16.90;5.50;;;6.00;99.90;;;;;;4966746;28;20034;-74
2022/01/24 08:52:31;;;;;;;23.52;6.15;;;6.00;99.90;;;;;;4945801;28;1110524;-74
2022/01/24 08:54:58;;;;;;;22.95;7.30;;;6.00;99.90;;;;;;4977227;28;20123;-74
2022/01/24 08:57:26;;;;;;;14.88;5.60;;;6.00;99.90;;;;;;4978267;28;20055;-73
2022/01/24 08:59:55;;;;;;;16.25;6.20;;;6.00;99.90;;;;;;4968478;28;20400;-73
2022/01/24 09:02:23;;;;;;;15.70;5.85;;;6.00;99.90;;;;;;4983916;28;20407;-71
2022/01/24 09:04:49;;;;;;;9.18;4.63;;;6.00;99.90;;;;;;4976911;28;20023;-73
2022/01/24 09:07:20;;;;;;;18.60;6.72;;;6.10;99.90;;;;;;4981697;28;20066;-71
2022/01/24 09:09:46;;;;;;;16.77;5.30;;;6.00;99.90;;;;;;4971393;28;20035;-73
2022/01/24 09:12:15;;;;;;;21.13;6.25;;;6.00;99.90;;;;;;4972202;28;20070;-73
2022/01/24 09:14:44;;;;;;;18.25;5.60;;;6.00;99.90;;;;;;4969714;28;20026;-73
2022/01/24 09:17:11;;;;;;;14.30;5.88;;;6.00;99.90;;;;;;4978662;28;20066;-73
2022/01/24 09:19:37;;;;;;;15.05;6.00;;;6.00;99.90;;;;;;4970757;28;20034;-71
2022/01/24 09:22:03;;;;;;;14.27;5.82;;;6.00;99.90;;;;;;4974339;28;20095;-73
2022/01/24 09:24:31;;;;;;;20.48;6.90;;;6.00;99.90;;;;;;4985014;28;20447;-70
2022/01/24 09:26:56;;;;;;;16.70;5.90;;;6.00;99.90;;;;;;4984778;28;20027;-74
2022/01/24 09:29:23;;;;;;;14.38;5.95;;;6.10;99.90;;;;;;4979653;28;20023;-73
2022/01/24 09:31:49;;;;;;;12.77;5.55;;;6.00;99.90;;;;;;4978539;28;20031;-73
2022/01/24 09:34:15;;;;;;;14.57;5.82;;;6.00;99.90;;;;;;4982472;28;20143;-71
2022/01/24 09:36:40;;;;;;;17.45;6.05;;;6.10;99.90;;;;;;4978871;28;20030;-72
2022/01/24 09:39:06;;;;;;;14.85;6.20;;;6.10;99.90;;;;;;4962741;28;20047;-72
2022/01/24 09:41:32;;;;;;;16.00;6.18;;;6.10;99.90;;;;;;4973015;28;20199;-72
2022/01/24 09:43:58;;;;;;;20.02;7.18;;;6.00;99.90;;;;;;4976709;28;20031;-72
2022/01/24 09:46:25;;;;;;;16.10;6.35;;;6.00;99.90;;;;;;4986043;28;20034;-71
2022/01/24 09:48:51;;;;;;;15.25;5.85;;;6.10;99.90;;;;;;4988051;28;20125;-71
2022/01/24 09:51:16;;;;;;;16.42;6.57;;;6.00;99.90;;;;;;4988327;28;20491;-70
2022/01/24 09:53:42;;;;;;;14.63;5.85;;;6.00;99.90;;;;;;4986951;28;20082;-71
2022/01/24 09:56:08;;;;;;;18.63;6.50;;;6.10;99.90;;;;;;4984740;28;20443;-71
2022/01/24 09:58:37;;;;;;;16.90;6.40;;;6.00;99.90;;;;;;4983384;28;20094;-71
2022/01/24 10:01:05;;;;;;;15.52;7.18;;;6.10;99.90;;;;;;4986195;28;20501;-72
2022/01/24 10:03:31;;;;;;;22.27;5.70;;;6.20;99.90;;;;;;4970778;28;20026;-72
2022/01/24 10:05:58;;;;;;;18.02;5.65;;;6.10;99.90;;;;;;4985072;28;20026;-72
2022/01/24 10:08:26;;;;;;;14.43;5.47;;;6.10;99.90;;;;;;4989995;28;20035;-72
2022/01/24 10:10:55;;;;;;;20.42;6.63;;;6.10;99.90;;;;;;4988776;28;20062;-71
2022/01/24 10:16:31;;;;;;;17.17;5.65;;;6.10;99.90;;;;;;4975345;28;20093;-72
2022/01/24 10:19:03;;;;;;;15.77;6.55;;;6.10;99.90;;;;;;4982869;28;20046;-73
2022/01/24 10:21:29;;;;;;;13.18;4.32;;;6.20;99.90;;;;;;4987691;28;20031;-74
2022/01/24 10:23:56;;;;;;;12.00;5.47;;;6.00;99.90;;;;;;4969417;28;20030;-73
2022/01/24 10:26:25;;;;;;;17.33;6.97;;;6.00;99.90;;;;;;4969114;28;20086;-72
2022/01/24 10:28:51;;;;;;;19.58;6.60;;;6.00;99.90;;;;;;4983790;28;20090;-72
2022/01/24 10:31:25;;;;;;;20.58;6.03;;;6.10;99.90;;;;;;4987031;28;20058;-72
2022/01/24 10:34:10;;;;;;;23.52;8.25;;;6.10;99.90;;;;;;4985925;28;20031;-73
2022/01/24 10:36:42;;;;;;;24.02;7.82;;;6.10;99.90;;;;;;4983179;28;20059;-73
2022/01/24 10:39:27;;;;;;;18.55;8.60;;;6.10;99.90;;;;;;4970579;28;20045;-70
2022/01/24 10:45:17;;;;;;;25.48;10.07;;;6.10;99.90;;;;;;4986768;28;20041;-72
2022/01/24 10:47:47;;;;;;;25.17;10.30;;;6.10;99.90;;;;;;4968310;28;20022;-72
2022/01/24 10:50:30;;;;;;;30.67;9.25;;;6.10;99.90;;;;;;4969669;28;20061;-72
2022/01/24 10:53:14;;;;;;;34.20;13.93;;;6.10;99.90;;;;;;4987475;28;20515;-72
2022/01/24 10:55:41;;;;;;;30.90;10.93;;;6.10;99.90;;;;;;4966547;28;20091;-72
2022/01/24 10:58:13;;;;;;;27.70;11.20;;;6.10;99.90;;;;;;4967862;28;20062;-71
2022/01/24 11:00:40;;;;;;;28.27;10.48;;;6.10;99.90;;;;;;4979050;28;20471;-71
2022/01/24 11:03:06;;;;;;;34.05;11.82;;;6.10;99.90;;;;;;4970092;28;20026;-72
2022/01/24 11:05:38;;;;;;;33.05;11.40;;;6.20;99.90;;;;;;4986969;28;20023;-72
2022/01/24 11:08:09;;;;;;;31.13;12.48;;;6.10;99.90;;;;;;4987119;28;20023;-70
2022/01/24 11:10:42;;;;;;;32.97;11.57;;;6.10;99.90;;;;;;4986363;28;20027;-71
2022/01/24 11:13:08;;;;;;;43.42;11.65;;;6.10;99.90;;;;;;4986744;28;20026;-70
2022/01/24 11:15:38;;;;;;;28.75;11.80;;;6.20;99.90;;;;;;4986656;28;20034;-73
2022/01/24 11:18:06;;;;;;;40.40;11.18;;;6.20;99.90;;;;;;4986396;28;20118;-72
2022/01/24 11:20:35;;;;;;;35.85;10.05;;;6.20;99.90;;;;;;4986693;28;20015;-72
2022/01/24 11:23:05;;;;;;;25.42;10.07;;;6.10;99.90;;;;;;4985838;28;20105;-73
2022/01/24 11:25:40;;;;;;;41.53;11.90;;;6.10;99.90;;;;;;4983798;28;20514;-72
2022/01/24 11:28:06;;;;;;;34.15;12.05;;;6.20;99.90;;;;;;4962901;28;20027;-72
2022/01/24 11:30:40;;;;;;;32.10;11.82;;;6.10;99.90;;;;;;4985879;28;20090;-72
2022/01/24 11:33:12;;;;;;;33.33;10.07;;;6.10;99.90;;;;;;4986134;28;20023;-71
2022/01/24 11:35:45;;;;;;;33.42;11.85;;;6.20;99.90;;;;;;4986290;28;20137;-71
2022/01/24 11:38:37;;;;;;;24.20;10.48;;;6.10;99.90;;;;;;4968186;28;20039;-71
2022/01/24 11:41:11;;;;;;;34.67;11.57;;;6.10;99.90;;;;;;4968251;28;20042;-72
2022/01/24 11:43:40;;;;;;;27.73;10.57;;;6.10;99.90;;;;;;4986116;28;20082;-71
2022/01/24 11:46:43;;;;;;;26.98;10.13;;;6.10;99.90;;;;;;4985659;28;20029;-70
2022/01/24 11:49:11;;;;;;;41.75;11.25;;;6.10;99.90;;;;;;4985351;28;20023;-73
2022/01/24 11:51:38;;;;;;;26.80;9.52;;;6.10;99.90;;;;;;4985413;28;20043;-72
2022/01/24 11:54:31;;;;;;;33.03;10.90;;;6.00;99.90;;;;;;4984453;28;20387;-70
2022/01/24 11:57:15;;;;;;;30.73;10.48;;;6.10;99.90;;;;;;4985973;28;20018;-71
2022/01/24 11:59:41;;;;;;;30.90;12.18;;;6.10;99.90;;;;;;4985309;28;20074;-71
2022/01/24 12:02:10;;;;;;;27.98;10.23;;;6.10;99.90;;;;;;4978444;28;20063;-74
2022/01/24 12:05:08;;;;;;;36.97;12.55;;;6.20;99.90;;;;;;4968408;28;20132;-72
2022/01/24 12:07:50;;;;;;;32.47;11.38;;;6.10;99.90;;;;;;4982653;28;20056;-72
2022/01/24 12:10:27;;;;;;;29.13;10.50;;;6.10;99.90;;;;;;4970457;28;20027;-72
2022/01/24 12:13:09;;;;;;;28.08;10.15;;;6.10;99.90;;;;;;4985618;28;20078;-73
2022/01/24 12:15:40;;;;;;;27.10;11.15;;;6.10;99.90;;;;;;4985380;28;20034;-72
2022/01/24 12:18:28;;;;;;;32.22;10.80;;;6.10;99.90;;;;;;4984669;28;20452;-72
2022/01/24 12:21:01;;;;;;;27.33;10.10;;;6.10;99.90;;;;;;4984559;28;20030;-73
2022/01/24 12:23:37;;;;;;;32.50;11.43;;;6.10;99.90;;;;;;4985224;28;20049;-75
2022/01/24 12:26:12;;;;;;;30.05;10.82;;;6.10;99.90;;;;;;4984461;28;20638;-72
2022/01/24 12:28:44;;;;;;;;;;;6.10;99.90;;;;;;4984856;28;20114;-72
2022/01/24 12:31:26;;;;;;;32.78;11.57;;;6.10;99.90;;;;;;4985496;28;19906;-73
2022/01/24 12:34:08;;;;;;;24.45;9.85;;;6.20;99.90;;;;;;4985350;28;20023;-74
2022/01/24 12:39:33;;;;;;;29.90;11.45;;;6.20;99.90;;;;;;4965612;28;20043;-73
2022/01/24 12:42:13;;;;;;;32.35;10.95;;;6.20;99.90;;;;;;4965901;28;20089;-73
2022/01/24 12:47:24;;;;;;;25.05;10.57;;;6.30;99.90;;;;;;4965781;28;20030;-73
2022/01/24 12:49:51;;;;;;;25.33;9.10;;;6.30;99.90;;;;;;4965968;28;20076;-73
2022/01/24 12:52:19;;;;;;;38.40;12.15;;;6.20;99.90;;;;;;4956816;28;20065;-72
2022/01/24 12:54:48;;;;;;;26.58;11.15;;;6.20;99.90;;;;;;4984469;28;20038;-76
2022/01/24 12:57:16;;;;;;;30.60;11.27;;;6.30;99.90;;;;;;4985036;28;20035;-72
2022/01/24 13:00:01;;;;;;;23.45;10.40;;;6.20;99.90;;;;;;4984801;28;20026;-73
2022/01/24 13:02:31;;;;;;;28.85;11.27;;;6.20;99.90;;;;;;4984801;28;20522;-72
2022/01/24 13:05:13;;;;;;;27.73;10.45;;;6.20;99.90;;;;;;4981906;28;20054;-73
2022/01/24 13:07:40;;;;;;;32.33;10.85;;;6.20;99.90;;;;;;4984842;28;20103;-72
2022/01/24 13:10:14;;;;;;;27.90;10.38;;;6.30;99.90;;;;;;4966814;28;20033;-73
2022/01/24 13:12:42;;;;;;;31.45;12.65;;;6.20;99.90;;;;;;4985224;28;20435;-74
2022/01/24 13:15:22;;;;;;;38.45;11.48;;;6.20;99.90;;;;;;4984511;28;20031;-72
2022/01/24 13:21:07;;;;;;;30.40;10.82;;;6.10;99.90;;;;;;4984921;28;20037;-73
2022/01/24 13:23:31;;;;;;;29.30;10.95;;;6.10;99.90;;;;;;4984048;28;20150;-72
2022/01/24 13:25:58;;;;;;;33.40;11.00;;;6.10;99.90;;;;;;4967426;28;20027;-73
2022/01/24 13:28:25;;;;;;;32.03;11.70;;;6.20;99.90;;;;;;4977923;28;20042;-75
2022/01/24 13:31:02;;;;;;;29.80;11.30;;;6.30;99.90;;;;;;4984556;28;20054;-73
2022/01/24 13:33:31;;;;;;;30.17;11.25;;;6.20;99.90;;;;;;4967404;28;20027;-73
2022/01/24 13:35:59;;;;;;;31.90;11.82;;;6.20;99.90;;;;;;4984640;28;20045;-74
2022/01/24 13:38:28;;;;;;;40.53;12.75;;;6.20;99.90;;;;;;4983827;28;20332;-74
2022/01/24 13:40:58;;;;;;;32.92;11.63;;;6.20;99.90;;;;;;4984204;28;20031;-72
2022/01/24 13:43:41;;;;;;;32.25;11.73;;;6.20;99.90;;;;;;4979340;28;20054;-73
2022/01/24 13:46:16;;;;;;;27.73;10.45;;;6.30;99.90;;;;;;4974067;28;20467;-73
2022/01/24 13:48:48;;;;;;;35.83;12.18;;;6.20;99.90;;;;;;4971334;28;20035;-73
2022/01/24 13:51:16;;;;;;;31.88;11.63;;;6.30;99.90;;;;;;4975456;28;20394;-73
2022/01/24 13:53:55;;;;;;;25.58;9.57;;;6.30;99.90;;;;;;4962784;28;20030;-74
2022/01/24 13:56:31;;;;;;;26.92;9.38;;;6.20;99.90;;;;;;4977126;28;20042;-72
2022/01/24 13:59:12;;;;;;;28.02;10.68;;;6.20;99.90;;;;;;4979181;28;20034;-73
2022/01/24 14:02:04;;;;;;;29.15;10.90;;;6.30;99.90;;;;;;4967652;28;20119;-71
2022/01/24 14:04:33;;;;;;;31.67;11.55;;;6.30;99.90;;;;;;4979613;28;20033;-71
2022/01/24 14:07:07;;;;;;;30.95;11.05;;;6.20;99.90;;;;;;4980005;28;20038;-73
2022/01/24 14:09:42;;;;;;;25.67;10.93;;;6.30;99.90;;;;;;4973819;28;20086;-73
2022/01/24 14:12:12;;;;;;;27.35;10.18;;;6.20;99.90;;;;;;4967298;28;20056;-71
2022/01/24 14:19:44;;;;;;;47.35;17.27;;;6.10;99.90;;;;;;4965665;28;20072;-71
2022/01/24 14:22:14;;;;;;;31.90;11.13;;;6.10;99.90;;;;;;4948626;28;20027;-70
2022/01/24 14:24:44;;;;;;;39.90;13.15;;;6.10;99.90;;;;;;4966022;28;20027;-71
2022/01/24 14:27:10;;;;;;;40.67;11.43;;;6.10;99.90;;;;;;4965520;28;20039;-71
2022/01/24 14:29:38;;;;;;;27.23;11.65;;;6.10;99.90;;;;;;4964523;28;20117;-70
2022/01/24 14:32:11;;;;;;;26.05;10.50;;;6.00;99.90;;;;;;4988753;28;20023;-71
2022/01/24 14:34:37;;;;;;;33.72;12.07;;;6.10;99.90;;;;;;4988817;28;20026;-70
2022/01/24 14:37:07;;;;;;;25.20;10.23;;;6.10;99.90;;;;;;4988166;28;20039;-70
2022/01/24 14:39:44;;;;;;;27.48;10.82;;;6.00;99.90;;;;;;4971783;28;20062;-69
2022/01/24 14:42:23;;;;;;;26.48;10.65;;;6.10;99.90;;;;;;4989626;28;20025;-71
2022/01/24 14:44:54;;;;;;;26.27;9.60;;;6.10;99.90;;;;;;4989109;28;20491;-72
2022/01/24 14:47:24;;;;;;;29.10;10.60;;;6.10;99.90;;;;;;4987995;28;20031;-71
2022/01/24 14:49:50;;;;;;;22.35;8.77;;;6.10;99.90;;;;;;4987538;28;20041;-71
2022/01/24 14:52:19;;;;;;;30.63;11.10;;;6.10;99.90;;;;;;4970665;28;20487;-70
2022/01/24 14:54:45;;;;;;;33.22;11.02;;;6.00;99.90;;;;;;4988406;28;20027;-72
2022/01/24 14:57:13;;;;;;;38.85;11.23;;;6.10;99.90;;;;;;4987940;28;20023;-71